createdAt,value
2018-07-28T00:00:48.937Z,44.99
2018-07-28T00:01:48.937Z,45.18
2018-07-28T00:02:49.070Z,45.33
2018-07-28T00:03:48.975Z,45.18
2018-07-28T00:04:49.016Z,45.03
2018-07-28T00:05:48.988Z,45.36
2018-07-28T00:06:48.943Z,45.12
2018-07-28T00:07:48.998Z,45.29
2018-07-28T00:08:48.973Z,44.99
2018-07-28T00:09:48.965Z,44.83
2018-07-28T00:10:48.948Z,45.19
2018-07-28T00:11:48.923Z,45.19
2018-07-28T00:12:48.922Z,45.26
2018-07-28T00:13:49.072Z,44.95
2018-07-28T00:14:48.928Z,44.93
2018-07-28T00:15:48.927Z,45.56
2018-07-28T00:16:49.268Z,45.08
2018-07-28T00:17:49.079Z,45.55
2018-07-28T00:18:48.921Z,45.16
2018-07-28T00:19:48.922Z,45.5
2018-07-28T00:20:48.985Z,45.43
2018-07-28T00:21:48.922Z,45.21
2018-07-28T00:22:48.928Z,45.52
2018-07-28T00:23:48.935Z,45.69
2018-07-28T00:24:49.375Z,45.75
2018-07-28T00:25:48.938Z,45.55
2018-07-28T00:26:48.914Z,46.05
2018-07-28T00:27:49.043Z,45.89
2018-07-28T00:28:48.922Z,46
2018-07-28T00:29:48.925Z,45.87
2018-07-28T00:30:48.898Z,45.75
2018-07-28T00:31:48.907Z,46.09
2018-07-28T00:32:49.005Z,45.47
2018-07-28T00:33:48.936Z,45.6
2018-07-28T00:34:48.924Z,46.02
2018-07-28T00:35:49.426Z,45.77
2018-07-28T00:36:48.921Z,46.06
2018-07-28T00:37:48.985Z,45.79
2018-07-28T00:38:48.934Z,45.85
2018-07-28T00:39:48.940Z,45.93
2018-07-28T00:40:49.059Z,46.18
2018-07-28T00:41:49.095Z,46.03
2018-07-28T00:42:48.916Z,46.17
2018-07-28T00:43:48.917Z,45.85
2018-07-28T00:44:48.914Z,46.11
2018-07-28T00:45:48.920Z,46.16
2018-07-28T00:46:48.915Z,46.26
2018-07-28T00:47:48.910Z,46.3
2018-07-28T00:48:48.957Z,46.25
2018-07-28T00:49:48.926Z,46.21
2018-07-28T00:50:48.923Z,46.37
2018-07-28T00:51:48.930Z,46.42
2018-07-28T00:52:48.934Z,46.23
2018-07-28T00:53:49.057Z,46.45
2018-07-28T00:54:48.906Z,46.5
2018-07-28T00:55:48.912Z,46.44
2018-07-28T00:56:48.923Z,46.27
2018-07-28T00:57:48.908Z,46.3
2018-07-28T00:58:48.925Z,46.28
2018-07-28T00:59:48.932Z,46.64
2018-07-28T01:00:48.934Z,46.55
2018-07-28T01:01:49.099Z,46.62
2018-07-28T01:02:48.910Z,46.74
2018-07-28T01:03:48.938Z,46.59
2018-07-28T01:04:48.916Z,46.7
2018-07-28T01:05:48.940Z,46.66
2018-07-28T01:06:48.939Z,46.79
2018-07-28T01:07:48.920Z,46.92
2018-07-28T01:08:48.934Z,47.12
2018-07-28T01:09:48.989Z,47
2018-07-28T01:10:48.915Z,46.89
2018-07-28T01:11:48.904Z,47.29
2018-07-28T01:12:49.269Z,47.03
2018-07-28T01:13:48.891Z,47.1
2018-07-28T01:14:48.972Z,47.14
2018-07-28T01:15:49.013Z,47.01
2018-07-28T01:16:48.899Z,46.9
2018-07-28T01:17:48.915Z,47.1
2018-07-28T01:18:48.925Z,46.97
2018-07-28T01:19:48.933Z,47.22
2018-07-28T01:20:48.910Z,47.03
2018-07-28T01:21:48.935Z,47.16
2018-07-28T01:22:48.987Z,47.49
2018-07-28T01:23:48.912Z,47.18
2018-07-28T01:24:48.945Z,47.07
2018-07-28T01:25:48.909Z,47.34
2018-07-28T01:26:48.894Z,47.44
2018-07-28T01:27:48.958Z,47.59
2018-07-28T01:28:48.922Z,47.56
2018-07-28T01:29:49.120Z,47.18
2018-07-28T01:30:48.975Z,47.44
2018-07-28T01:31:48.916Z,47.57
2018-07-28T01:32:48.942Z,47.62
2018-07-28T01:33:49.107Z,47.37
2018-07-28T01:34:48.911Z,47.63
2018-07-28T01:35:48.906Z,47.51
2018-07-28T01:36:48.967Z,47.31
2018-07-28T01:37:48.911Z,47.41
2018-07-28T01:38:48.958Z,47.3
2018-07-28T01:39:48.895Z,47.48
2018-07-28T01:40:48.931Z,47.43
2018-07-28T01:41:48.926Z,47.43
2018-07-28T01:42:48.951Z,47.6
2018-07-28T01:43:48.952Z,47.59
2018-07-28T01:44:48.913Z,47.56
2018-07-28T01:45:48.903Z,47.68
2018-07-28T01:46:48.985Z,47.58
2018-07-28T01:47:49.034Z,47.61
2018-07-28T01:48:48.956Z,47.7
2018-07-28T01:49:48.944Z,47.66
2018-07-28T01:50:48.913Z,47.58
2018-07-28T01:51:48.921Z,47.64
2018-07-28T01:52:48.909Z,47.83
2018-07-28T01:53:48.939Z,47.88
2018-07-28T01:54:48.889Z,47.93
2018-07-28T01:55:48.902Z,47.86
2018-07-28T01:56:48.905Z,47.87
2018-07-28T01:57:48.915Z,47.89
2018-07-28T01:58:48.920Z,47.82
2018-07-28T01:59:49.029Z,47.7
2018-07-28T02:00:48.902Z,47.87
2018-07-28T02:01:48.904Z,47.53
2018-07-28T02:02:48.934Z,48.04
2018-07-28T02:03:48.951Z,48.04
2018-07-28T02:04:48.925Z,48.02
2018-07-28T02:05:48.917Z,47.85
2018-07-28T02:06:48.919Z,48.09
2018-07-28T02:07:48.924Z,48.1
2018-07-28T02:08:48.927Z,48.09
2018-07-28T02:09:48.913Z,48.09
2018-07-28T02:10:49.563Z,48.09
2018-07-28T02:11:48.901Z,48.19
2018-07-28T02:12:48.923Z,48.09
2018-07-28T02:13:48.919Z,48.09
2018-07-28T02:14:48.947Z,48.13
2018-07-28T02:15:48.924Z,48.13
2018-07-28T02:16:48.907Z,48.33
2018-07-28T02:17:48.937Z,48.37
2018-07-28T02:18:48.924Z,48.42
2018-07-28T02:19:49.062Z,48.27
2018-07-28T02:20:48.934Z,48.59
2018-07-28T02:21:48.952Z,48.42
2018-07-28T02:22:48.945Z,48.52
2018-07-28T02:23:48.946Z,48.66
2018-07-28T02:24:48.930Z,48.5
2018-07-28T02:25:48.950Z,48.48
2018-07-28T02:26:48.907Z,48.55
2018-07-28T02:27:48.908Z,48.55
2018-07-28T02:28:48.968Z,48.57
2018-07-28T02:29:48.947Z,48.35
2018-07-28T02:30:49.208Z,48.6
2018-07-28T02:31:48.968Z,48.88
2018-07-28T02:32:48.911Z,48.68
2018-07-28T02:33:48.955Z,48.8
2018-07-28T02:34:48.906Z,48.88
2018-07-28T02:35:49.023Z,48.78
2018-07-28T02:36:49.099Z,48.87
2018-07-28T02:37:48.898Z,48.91
2018-07-28T02:38:48.924Z,48.84
2018-07-28T02:39:49.081Z,48.65
2018-07-28T02:40:48.896Z,48.95
2018-07-28T02:41:48.900Z,48.64
2018-07-28T02:42:48.930Z,49.26
2018-07-28T02:43:48.911Z,49.16
2018-07-28T02:44:48.963Z,49.18
2018-07-28T02:45:48.937Z,49.27
2018-07-28T02:46:48.933Z,49.42
2018-07-28T02:47:48.936Z,49.4
2018-07-28T02:48:49.060Z,49.38
2018-07-28T02:49:48.905Z,49.2
2018-07-28T02:50:49.239Z,49.41
2018-07-28T02:51:48.929Z,49.64
2018-07-28T02:52:48.959Z,49.53
2018-07-28T02:53:48.916Z,49.7
2018-07-28T02:54:48.930Z,49.75
2018-07-28T02:55:48.918Z,49.66
2018-07-28T02:56:48.887Z,49.6
2018-07-28T02:57:48.932Z,49.59
2018-07-28T02:58:49.095Z,49.62
2018-07-28T02:59:48.982Z,49.76
2018-07-28T03:00:48.907Z,49.81
2018-07-28T03:01:48.915Z,49.82
2018-07-28T03:02:49.272Z,49.88
2018-07-28T03:03:48.950Z,49.8
2018-07-28T03:04:48.912Z,49.85
2018-07-28T03:05:49.051Z,49.71
2018-07-28T03:06:48.926Z,49.96
2018-07-28T03:07:48.939Z,49.83
2018-07-28T03:08:49.077Z,50.08
2018-07-28T03:09:48.933Z,49.6
2018-07-28T03:10:48.940Z,50.06
2018-07-28T03:11:49.013Z,50.14
2018-07-28T03:12:49.383Z,49.94
2018-07-28T03:13:48.896Z,49.65
2018-07-28T03:14:48.906Z,50.12
2018-07-28T03:15:48.895Z,49.79
2018-07-28T03:16:48.898Z,50.17
2018-07-28T03:17:48.912Z,50.23
2018-07-28T03:18:48.919Z,50.43
2018-07-28T03:19:48.891Z,49.96
2018-07-28T03:20:48.909Z,50
2018-07-28T03:21:48.928Z,50.05
2018-07-28T03:22:48.911Z,50.5
2018-07-28T03:23:48.887Z,50.25
2018-07-28T03:24:48.893Z,50.42
2018-07-28T03:25:48.906Z,50.49
2018-07-28T03:26:48.947Z,50.3
2018-07-28T03:27:48.897Z,50.14
2018-07-28T03:28:48.887Z,50.46
2018-07-28T03:29:48.882Z,50.5
2018-07-28T03:30:48.924Z,50.21
2018-07-28T03:31:48.891Z,50.29
2018-07-28T03:32:48.887Z,50.04
2018-07-28T03:33:48.898Z,50.62
2018-07-28T03:34:48.906Z,50.74
2018-07-28T03:35:48.923Z,50.48
2018-07-28T03:36:48.900Z,50.74
2018-07-28T03:37:48.907Z,51
2018-07-28T03:38:48.927Z,50.83
2018-07-28T03:39:48.910Z,51.18
2018-07-28T03:40:48.928Z,51.23
2018-07-28T03:41:48.888Z,51.16
2018-07-28T03:42:48.890Z,51.34
2018-07-28T03:43:48.896Z,51.29
2018-07-28T03:44:48.939Z,51
2018-07-28T03:45:49.148Z,50.83
2018-07-28T03:46:48.932Z,51.3
2018-07-28T03:47:48.908Z,51.7
2018-07-28T03:48:48.950Z,51.59
2018-07-28T03:49:48.914Z,51.58
2018-07-28T03:50:49.028Z,51.51
2018-07-28T03:51:48.883Z,51.46
2018-07-28T03:52:48.887Z,51.71
2018-07-28T03:53:48.872Z,51.77
2018-07-28T03:54:48.916Z,51.74
2018-07-28T03:55:48.868Z,51.47
2018-07-28T03:56:49.060Z,51.73
2018-07-28T03:57:48.955Z,51.51
2018-07-28T03:58:48.917Z,52.27
2018-07-28T03:59:48.974Z,51.75
2018-07-28T04:00:49.005Z,51.98
2018-07-28T04:01:48.927Z,52.13
2018-07-28T04:02:48.915Z,52.33
2018-07-28T04:03:48.895Z,52.69
2018-07-28T04:04:48.884Z,52
2018-07-28T04:05:48.932Z,52.56
2018-07-28T04:06:48.868Z,52.48
2018-07-28T04:07:48.950Z,52
2018-07-28T04:08:48.911Z,52.36
2018-07-28T04:09:49.259Z,52.51
2018-07-28T04:10:48.912Z,52.29
2018-07-28T04:11:48.877Z,51.87
2018-07-28T04:12:48.878Z,52.03
2018-07-28T04:13:48.905Z,51.98
2018-07-28T04:14:48.915Z,52.94
2018-07-28T04:15:48.908Z,52.6
2018-07-28T04:16:48.905Z,53.02
2018-07-28T04:17:48.915Z,53.08
2018-07-28T04:18:48.898Z,52.83
2018-07-28T04:19:48.946Z,52.55
2018-07-28T04:20:48.901Z,52.3
2018-07-28T04:21:48.880Z,53.41
2018-07-28T04:22:48.902Z,52.55
2018-07-28T04:23:49.056Z,53.14
2018-07-28T04:24:48.926Z,53.34
2018-07-28T04:25:48.907Z,52.9
2018-07-28T04:26:48.983Z,52.62
2018-07-28T04:27:48.880Z,52.95
2018-07-28T04:28:48.883Z,53.1
2018-07-28T04:29:48.951Z,53.57
2018-07-28T04:30:48.878Z,53.69
2018-07-28T04:31:48.859Z,53.49
2018-07-28T04:32:48.888Z,53.28
2018-07-28T04:33:49.017Z,53.45
2018-07-28T04:34:48.874Z,53.33
2018-07-28T04:35:49.027Z,53.49
2018-07-28T04:36:48.921Z,53.22
2018-07-28T04:37:48.905Z,53.47
2018-07-28T04:38:48.870Z,53.49
2018-07-28T04:39:48.866Z,53.71
2018-07-28T04:40:48.883Z,53.72
2018-07-28T04:41:48.869Z,53.79
2018-07-28T04:42:48.861Z,53.97
2018-07-28T04:43:48.877Z,53.63
2018-07-28T04:44:48.885Z,54.09
2018-07-28T04:45:48.883Z,53.6
2018-07-28T04:46:48.911Z,53.92
2018-07-28T04:47:48.873Z,53.93
2018-07-28T04:48:48.869Z,54.06
2018-07-28T04:49:48.880Z,54.33
2018-07-28T04:50:49.036Z,54.58
2018-07-28T04:51:48.884Z,54.3
2018-07-28T04:52:48.892Z,54.47
2018-07-28T04:53:48.992Z,54.18
2018-07-28T04:54:48.968Z,54.2
2018-07-28T04:55:49.020Z,54.23
2018-07-28T04:56:48.868Z,54.3
2018-07-28T04:57:49.201Z,53.81
2018-07-28T04:58:49.199Z,54.65
2018-07-28T04:59:49.078Z,54.49
2018-07-28T05:00:48.909Z,54.3
2018-07-28T05:01:48.873Z,54
2018-07-28T05:02:48.884Z,53.93
2018-07-28T05:03:48.941Z,54.29
2018-07-28T05:04:48.912Z,54.17
2018-07-28T05:05:48.874Z,54.4
2018-07-28T05:06:49.131Z,54.54
2018-07-28T05:07:48.859Z,54.06
2018-07-28T05:08:49.065Z,54.43
2018-07-28T05:09:48.866Z,54.13
2018-07-28T05:10:48.886Z,54.33
2018-07-28T05:11:48.963Z,54.67
2018-07-28T05:12:49.043Z,54.33
2018-07-28T05:13:48.901Z,53.88
2018-07-28T05:14:48.991Z,54.91
2018-07-28T05:15:49.339Z,54.7
2018-07-28T05:16:48.978Z,54.28
2018-07-28T05:17:49.110Z,54.79
2018-07-28T05:18:49.351Z,55.09
2018-07-28T05:19:49.062Z,55.05
2018-07-28T05:20:48.957Z,54.68
2018-07-28T05:21:48.910Z,55.73
2018-07-28T05:22:48.865Z,55.29
2018-07-28T05:23:48.888Z,55.2
2018-07-28T05:24:48.918Z,55.64
2018-07-28T05:25:49.126Z,55.27
2018-07-28T05:26:48.936Z,55.28
2018-07-28T05:27:48.901Z,55.25
2018-07-28T05:28:48.923Z,55.45
2018-07-28T05:29:48.921Z,55.19
2018-07-28T05:30:48.960Z,55.3
2018-07-28T05:31:49.144Z,55.42
2018-07-28T05:32:48.891Z,55.36
2018-07-28T05:33:48.907Z,55.3
2018-07-28T05:34:48.887Z,55.71
2018-07-28T05:35:48.864Z,55.44
2018-07-28T05:36:48.900Z,55.27
2018-07-28T05:37:48.924Z,55.64
2018-07-28T05:38:48.856Z,55.52
2018-07-28T05:39:48.905Z,55.47
2018-07-28T05:40:49.288Z,55.42
2018-07-28T05:41:49.117Z,55.94
2018-07-28T05:42:49.718Z,55.49
2018-07-28T05:43:48.960Z,55.34
2018-07-28T05:44:49.057Z,55.57
2018-07-28T05:45:48.904Z,55.42
2018-07-28T05:46:48.900Z,55.24
2018-07-28T05:47:48.946Z,55.19
2018-07-28T05:48:48.881Z,54.68
2018-07-28T05:49:48.875Z,54.42
2018-07-28T05:50:48.864Z,54.74
2018-07-28T05:51:48.883Z,55.11
2018-07-28T05:52:48.875Z,54.9
2018-07-28T05:53:48.845Z,55.14
2018-07-28T05:54:48.873Z,54.8
2018-07-28T05:55:48.841Z,54.88
2018-07-28T05:56:48.843Z,55
2018-07-28T05:57:48.886Z,54.96
2018-07-28T05:58:48.881Z,54.6
2018-07-28T05:59:48.863Z,54.45
2018-07-28T06:00:48.897Z,55.09
2018-07-28T06:01:48.881Z,54.88
2018-07-28T06:02:48.943Z,55.15
2018-07-28T06:03:48.881Z,55.02
2018-07-28T06:04:48.881Z,54.79
2018-07-28T06:05:48.840Z,54.28
2018-07-28T06:06:48.845Z,54.05
2018-07-28T06:07:48.891Z,54.54
2018-07-28T06:08:48.848Z,55
2018-07-28T06:09:48.922Z,55.08
2018-07-28T06:10:48.996Z,54.45
2018-07-28T06:11:48.838Z,54.38
2018-07-28T06:12:48.912Z,54.43
2018-07-28T06:13:48.995Z,54.33
2018-07-28T06:14:48.904Z,54.38
2018-07-28T06:15:49.337Z,54.71
2018-07-28T06:16:48.936Z,54.73
2018-07-28T06:17:48.860Z,54.91
2018-07-28T06:18:48.860Z,54.48
2018-07-28T06:19:48.901Z,54.78
2018-07-28T06:20:48.964Z,54.56
2018-07-28T06:21:49.121Z,54.25
2018-07-28T06:22:48.901Z,54.77
2018-07-28T06:23:48.925Z,55.31
2018-07-28T06:24:49.006Z,55.58
2018-07-28T06:25:48.935Z,55.88
2018-07-28T06:26:48.933Z,55.87
2018-07-28T06:27:48.904Z,55.53
2018-07-28T06:28:48.967Z,55.71
2018-07-28T06:29:48.887Z,54.96
2018-07-28T06:30:48.929Z,55.46
2018-07-28T06:31:48.928Z,55.61
2018-07-28T06:32:48.901Z,55.54
2018-07-28T06:33:49.147Z,55.57
2018-07-28T06:34:48.892Z,55.83
2018-07-28T06:35:48.876Z,55.62
2018-07-28T06:36:48.939Z,56.05
2018-07-28T06:37:49.031Z,55.94
2018-07-28T06:38:48.954Z,56.04
2018-07-28T06:39:48.930Z,56.11
2018-07-28T06:40:48.862Z,56.13
2018-07-28T06:41:48.905Z,55.74
2018-07-28T06:42:48.856Z,56.31
2018-07-28T06:43:48.910Z,56.24
2018-07-28T06:44:49.019Z,56.09
2018-07-28T06:45:48.866Z,55.95
2018-07-28T06:46:49.136Z,56.27
2018-07-28T06:47:48.973Z,56.22
2018-07-28T06:48:48.888Z,55.8
2018-07-28T06:49:48.914Z,55.87
2018-07-28T06:50:48.893Z,55.99
2018-07-28T06:51:49.257Z,55.99
2018-07-28T06:52:48.957Z,55.56
2018-07-28T06:53:49.122Z,55.79
2018-07-28T06:54:48.828Z,55.86
2018-07-28T06:55:48.936Z,55.93
2018-07-28T06:56:48.973Z,55.93
2018-07-28T06:57:48.839Z,56.08
2018-07-28T06:58:48.949Z,55.78
2018-07-28T06:59:48.936Z,56.17
2018-07-28T07:00:48.860Z,55.89
2018-07-28T07:01:49.237Z,55.95
2018-07-28T07:02:48.867Z,55.6
2018-07-28T07:03:48.829Z,55.82
2018-07-28T07:04:48.880Z,55.75
2018-07-28T07:05:48.890Z,55.83
2018-07-28T07:06:48.963Z,55.74
2018-07-28T07:07:48.874Z,55.78
2018-07-28T07:08:48.821Z,55.46
2018-07-28T07:09:48.879Z,55.77
2018-07-28T07:10:48.892Z,55.83
2018-07-28T07:11:48.859Z,55.74
2018-07-28T07:12:48.883Z,55.81
2018-07-28T07:13:48.879Z,55.33
2018-07-28T07:14:48.907Z,55.63
2018-07-28T07:15:48.861Z,55.63
2018-07-28T07:16:48.859Z,54.95
2018-07-28T07:17:48.838Z,55.29
2018-07-28T07:18:48.860Z,55.13
2018-07-28T07:19:48.851Z,54.99
2018-07-28T07:20:48.847Z,55.01
2018-07-28T07:21:48.822Z,55.3
2018-07-28T07:22:48.885Z,55.05
2018-07-28T07:23:48.852Z,54.84
2018-07-28T07:24:48.905Z,54.56
2018-07-28T07:25:48.895Z,54.69
2018-07-28T07:26:48.876Z,54.57
2018-07-28T07:27:48.866Z,54.59
2018-07-28T07:28:48.935Z,54.82
2018-07-28T07:29:48.828Z,54.35
2018-07-28T07:30:48.942Z,54.28
2018-07-28T07:31:49.012Z,54.38
2018-07-28T07:32:48.956Z,54.36
2018-07-28T07:33:49.061Z,54.06
2018-07-28T07:34:48.893Z,54.44
2018-07-28T07:35:48.953Z,54.31
2018-07-28T07:36:48.931Z,54.45
2018-07-28T07:37:48.917Z,54.39
2018-07-28T07:38:48.832Z,54.92
2018-07-28T07:39:48.894Z,54.47
2018-07-28T07:40:48.973Z,54.39
2018-07-28T07:41:49.092Z,54.17
2018-07-28T07:42:48.986Z,54.3
2018-07-28T07:43:48.917Z,54.43
2018-07-28T07:44:48.912Z,54.45
2018-07-28T07:45:48.931Z,54.33
2018-07-28T07:46:48.938Z,54.29
2018-07-28T07:47:48.870Z,54.32
2018-07-28T07:48:48.981Z,54.41
2018-07-28T07:49:48.950Z,54.48
2018-07-28T07:50:48.896Z,54.4
2018-07-28T07:51:48.874Z,54.21
2018-07-28T07:52:48.849Z,54.22
2018-07-28T07:53:48.914Z,54.3
2018-07-28T07:54:48.928Z,54.14
2018-07-28T07:55:48.876Z,54.55
2018-07-28T07:56:48.874Z,53.91
2018-07-28T07:57:49.125Z,53.73
2018-07-28T07:58:48.941Z,54.07
2018-07-28T07:59:48.911Z,54.74
2018-07-28T08:00:48.945Z,55.25
2018-07-28T08:01:48.842Z,55.49
2018-07-28T08:02:48.924Z,55
2018-07-28T08:03:48.954Z,54.89
2018-07-28T08:04:48.916Z,54.32
2018-07-28T08:05:48.975Z,54.48
2018-07-28T08:06:48.926Z,54.39
2018-07-28T08:07:49.161Z,54.68
2018-07-28T08:08:48.985Z,55.33
2018-07-28T08:09:48.893Z,55.59
2018-07-28T08:10:49.023Z,56.27
2018-07-28T08:11:48.848Z,56.1
2018-07-28T08:12:48.820Z,55.66
2018-07-28T08:13:48.883Z,55.51
2018-07-28T08:14:48.913Z,56.25
2018-07-28T08:15:48.893Z,56.04
2018-07-28T08:16:48.888Z,55.89
2018-07-28T08:17:48.883Z,56.25
2018-07-28T08:18:48.895Z,56.01
2018-07-28T08:19:48.847Z,55.84
2018-07-28T08:20:48.877Z,55.75
2018-07-28T08:21:48.891Z,55.71
2018-07-28T08:22:48.905Z,55.42
2018-07-28T08:23:48.823Z,55.95
2018-07-28T08:24:49.072Z,55.78
2018-07-28T08:25:48.874Z,55.79
2018-07-28T08:26:48.982Z,55.27
2018-07-28T08:27:48.823Z,55.43
2018-07-28T08:28:48.828Z,54.97
2018-07-28T08:29:48.852Z,54.87
2018-07-28T08:30:48.863Z,54.56
2018-07-28T08:31:48.915Z,54.59
2018-07-28T08:32:48.845Z,54.67
2018-07-28T08:33:48.946Z,54.07
2018-07-28T08:34:48.904Z,54.03
2018-07-28T08:35:48.829Z,53.4
2018-07-28T08:36:48.811Z,52.92
2018-07-28T08:37:48.839Z,52.92
2018-07-28T08:38:48.805Z,53.04
2018-07-28T08:39:48.872Z,53.44
2018-07-28T08:40:48.861Z,53.37
2018-07-28T08:41:48.819Z,53.09
2018-07-28T08:42:48.908Z,53.28
2018-07-28T08:43:48.901Z,53.09
2018-07-28T08:44:48.870Z,53.05
2018-07-28T08:45:48.866Z,53.59
2018-07-28T08:46:49.028Z,53.68
2018-07-28T08:47:48.902Z,54.2
2018-07-28T08:48:48.951Z,54.33
2018-07-28T08:49:48.830Z,54.34
2018-07-28T08:50:48.880Z,53.97
2018-07-28T08:51:48.980Z,53.35
2018-07-28T08:52:48.890Z,53.02
2018-07-28T08:53:48.990Z,53.09
2018-07-28T08:54:48.940Z,53
2018-07-28T08:55:49.005Z,51.61
2018-07-28T08:56:49.115Z,51.56
2018-07-28T08:57:48.896Z,51.39
2018-07-28T08:58:48.924Z,51.57
2018-07-28T08:59:49.036Z,50.76
2018-07-28T09:00:49.044Z,50.53
2018-07-28T09:01:48.833Z,50.6
2018-07-28T09:02:48.952Z,49.98
2018-07-28T09:03:49.170Z,49.64
2018-07-28T09:04:48.968Z,50.1
2018-07-28T09:05:49.099Z,49.45
2018-07-28T09:06:48.977Z,50.01
2018-07-28T09:07:48.984Z,50.4
2018-07-28T09:08:48.890Z,50.08
2018-07-28T09:09:48.940Z,50.5
2018-07-28T09:10:48.899Z,50.72
2018-07-28T09:11:48.826Z,51.14
2018-07-28T09:12:48.916Z,50.77
2018-07-28T09:13:49.124Z,51.11
2018-07-28T09:14:49.029Z,51.52
2018-07-28T09:15:48.931Z,51.47
2018-07-28T09:16:48.938Z,50.19
2018-07-28T09:17:48.945Z,50.09
2018-07-28T09:18:48.843Z,50.11
2018-07-28T09:19:48.877Z,49.28
2018-07-28T09:20:48.854Z,49.63
2018-07-28T09:21:48.981Z,49.33
2018-07-28T09:22:48.987Z,49.14
2018-07-28T09:23:48.988Z,48.18
2018-07-28T09:24:48.851Z,48.76
2018-07-28T09:25:48.933Z,48.68
2018-07-28T09:26:49.083Z,48.05
2018-07-28T09:27:48.856Z,48.25
2018-07-28T09:28:48.830Z,47.93
2018-07-28T09:29:48.895Z,47.8
2018-07-28T09:30:48.899Z,47.34
2018-07-28T09:31:48.823Z,47.52
2018-07-28T09:32:48.957Z,47.67
2018-07-28T09:33:48.975Z,47.68
2018-07-28T09:34:48.986Z,47.81
2018-07-28T09:35:48.820Z,48.09
2018-07-28T09:36:49.024Z,47.73
2018-07-28T09:37:48.957Z,47.81
2018-07-28T09:38:48.943Z,48.11
2018-07-28T09:39:48.996Z,48.41
2018-07-28T09:40:49.002Z,48.66
2018-07-28T09:41:49.119Z,49.21
2018-07-28T09:42:49.046Z,48.41
2018-07-28T09:43:48.828Z,48.27
2018-07-28T09:44:48.875Z,48.07
2018-07-28T09:45:48.855Z,48.35
2018-07-28T09:46:48.836Z,48.15
2018-07-28T09:47:48.868Z,47.83
2018-07-28T09:48:48.848Z,48.23
2018-07-28T09:49:48.895Z,47.67
2018-07-28T09:50:48.856Z,47.38
2018-07-28T09:51:48.997Z,47.27
2018-07-28T09:52:48.984Z,47.05
2018-07-28T09:53:48.800Z,47.41
2018-07-28T09:54:48.957Z,47.3
2018-07-28T09:55:48.862Z,46.63
2018-07-28T09:56:48.824Z,46.27
2018-07-28T09:57:48.880Z,46.64
2018-07-28T09:58:48.816Z,47
2018-07-28T09:59:48.813Z,47.4
2018-07-28T10:00:49.044Z,47.42
2018-07-28T10:01:48.825Z,46.43
2018-07-28T10:02:49.052Z,46.6
2018-07-28T10:03:48.804Z,46.39
2018-07-28T10:04:48.861Z,46.89
2018-07-28T10:05:48.850Z,46.88
2018-07-28T10:06:49.086Z,46.56
2018-07-28T10:07:48.988Z,46.62
2018-07-28T10:08:48.830Z,46.73
2018-07-28T10:09:48.838Z,45.49
2018-07-28T10:10:49.004Z,45.07
2018-07-28T10:11:49.112Z,45.65
2018-07-28T10:12:48.910Z,46.07
2018-07-28T10:13:48.882Z,45.31
2018-07-28T10:14:48.926Z,45
2018-07-28T10:15:48.942Z,45
2018-07-28T10:16:48.824Z,45.4
2018-07-28T10:17:48.981Z,45.1
2018-07-28T10:18:48.839Z,45.21
2018-07-28T10:19:48.798Z,45.58
2018-07-28T10:20:48.973Z,45.77
2018-07-28T10:21:48.975Z,45.78
2018-07-28T10:22:48.845Z,45.71
2018-07-28T10:23:48.874Z,46
2018-07-28T10:24:48.803Z,46.02
2018-07-28T10:25:49.009Z,46.47
2018-07-28T10:26:48.855Z,46.46
2018-07-28T10:27:48.888Z,46.67
2018-07-28T10:28:48.805Z,46.81
2018-07-28T10:29:48.927Z,46.88
2018-07-28T10:30:48.905Z,46.93
2018-07-28T10:31:48.913Z,46.57
2018-07-28T10:32:48.805Z,46.3
2018-07-28T10:33:48.846Z,46.88
2018-07-28T10:34:48.944Z,46.61
2018-07-28T10:35:48.887Z,46.39
2018-07-28T10:36:49.082Z,46.74
2018-07-28T10:37:48.923Z,47.1
2018-07-28T10:38:49.001Z,46.68
2018-07-28T10:39:48.935Z,47.09
2018-07-28T10:40:48.908Z,46.78
2018-07-28T10:41:48.909Z,46.99
2018-07-28T10:42:48.934Z,46.71
2018-07-28T10:43:48.809Z,47.23
2018-07-28T10:44:48.948Z,47.36
2018-07-28T10:45:48.822Z,47.85
2018-07-28T10:46:48.885Z,47.7
2018-07-28T10:47:48.950Z,46.38
2018-07-28T10:48:48.906Z,46.47
2018-07-28T10:49:48.881Z,46.31
2018-07-28T10:50:48.899Z,46.41
2018-07-28T10:51:49.123Z,46.52
2018-07-28T10:52:48.940Z,46.2
2018-07-28T10:53:49.197Z,46.28
2018-07-28T10:54:49.031Z,46.01
2018-07-28T10:55:49.041Z,46.4
2018-07-28T10:56:48.909Z,46.35
2018-07-28T10:57:48.909Z,46.56
2018-07-28T10:58:48.908Z,46.7
2018-07-28T10:59:48.870Z,46.74
2018-07-28T11:00:48.849Z,47.05
2018-07-28T11:01:48.870Z,46.53
2018-07-28T11:02:48.717Z,47
2018-07-28T11:03:48.799Z,46.26
2018-07-28T11:04:48.904Z,46.16
2018-07-28T11:05:48.807Z,46.33
2018-07-28T11:06:49.019Z,46.28
2018-07-28T11:07:48.859Z,45.39
2018-07-28T11:08:48.823Z,45.1
2018-07-28T11:09:48.819Z,45.32
2018-07-28T11:10:48.857Z,45.11
2018-07-28T11:11:48.886Z,44.9
2018-07-28T11:12:48.948Z,43.81
2018-07-28T11:13:48.920Z,44.39
2018-07-28T11:14:48.911Z,43.48
2018-07-28T11:15:48.857Z,43.12
2018-07-28T11:16:48.828Z,42.18
2018-07-28T11:17:48.872Z,42.53
2018-07-28T11:18:49.023Z,43.21
2018-07-28T11:19:48.852Z,43.45
2018-07-28T11:20:48.873Z,43.16
2018-07-28T11:21:49.018Z,43.51
2018-07-28T11:22:48.835Z,43.85
2018-07-28T11:23:48.978Z,43.79
2018-07-28T11:24:48.892Z,43.82
2018-07-28T11:25:49.065Z,43.66
2018-07-28T11:26:48.926Z,43.78
2018-07-28T11:27:48.826Z,43.64
2018-07-28T11:28:48.951Z,43.65
2018-07-28T11:29:48.925Z,44
2018-07-28T11:30:49.032Z,43.97
2018-07-28T11:31:49.077Z,43.76
2018-07-28T11:32:49.025Z,44.09
2018-07-28T11:33:48.919Z,43.66
2018-07-28T11:34:48.936Z,43.25
2018-07-28T11:35:48.964Z,41.94
2018-07-28T11:36:48.908Z,41.55
2018-07-28T11:37:48.922Z,42.65
2018-07-28T11:38:48.933Z,41.66
2018-07-28T11:39:48.869Z,42.31
2018-07-28T11:40:48.884Z,42.13
2018-07-28T11:41:48.909Z,42.29
2018-07-28T11:42:48.951Z,42.73
2018-07-28T11:43:48.898Z,42.71
2018-07-28T11:44:48.853Z,41.95
2018-07-28T11:45:48.968Z,41.51
2018-07-28T11:46:48.886Z,40.54
2018-07-28T11:47:48.895Z,40.52
2018-07-28T11:48:48.917Z,40.44
2018-07-28T11:49:48.911Z,40.73
2018-07-28T11:50:48.900Z,41.13
2018-07-28T11:51:48.952Z,41.19
2018-07-28T11:52:48.944Z,41.06
2018-07-28T11:53:48.894Z,40.76
2018-07-28T11:54:48.941Z,40.69
2018-07-28T11:55:49.046Z,40.76
2018-07-28T11:56:48.910Z,41.19
2018-07-28T11:57:48.939Z,40.56
2018-07-28T11:58:49.075Z,40.34
2018-07-28T11:59:48.903Z,40.44
2018-07-28T12:00:48.912Z,40.73
2018-07-28T12:01:48.970Z,40.8
2018-07-28T12:02:48.940Z,40.92
2018-07-28T12:03:48.915Z,41.13
2018-07-28T12:04:48.892Z,41.36
2018-07-28T12:05:48.917Z,40.77
2018-07-28T12:06:48.905Z,40.64
2018-07-28T12:07:48.911Z,40.75
2018-07-28T12:08:48.892Z,40.6
2018-07-28T12:09:48.914Z,40.14
2018-07-28T12:10:48.894Z,40.67
2018-07-28T12:11:49.018Z,40.68
2018-07-28T12:12:48.902Z,40.98
2018-07-28T12:13:48.905Z,40.47
2018-07-28T12:14:49.144Z,40.69
2018-07-28T12:15:48.940Z,40.43
2018-07-28T12:16:49.028Z,40.83
2018-07-28T12:17:48.892Z,41.21
2018-07-28T12:18:48.941Z,40.84
2018-07-28T12:19:48.940Z,40.8
2018-07-28T12:20:48.911Z,40.75
2018-07-28T12:21:48.915Z,40.79
2018-07-28T12:22:48.907Z,41.06
2018-07-28T12:23:48.909Z,41.62
2018-07-28T12:24:48.893Z,41.55
2018-07-28T12:25:48.975Z,41.13
2018-07-28T12:26:48.928Z,41.45
2018-07-28T12:27:48.921Z,41.49
2018-07-28T12:28:48.926Z,41.27
2018-07-28T12:29:48.956Z,41.54
2018-07-28T12:30:48.944Z,41.72
2018-07-28T12:31:48.927Z,41.64
2018-07-28T12:32:48.919Z,41.32
2018-07-28T12:33:49.125Z,41.64
2018-07-28T12:34:48.940Z,41.64
2018-07-28T12:35:49.045Z,41.32
2018-07-28T12:36:49.137Z,41.76
2018-07-28T12:37:48.935Z,41.89
2018-07-28T12:38:48.946Z,41.69
2018-07-28T12:39:48.989Z,41.87
2018-07-28T12:40:48.974Z,41.82
2018-07-28T12:41:48.923Z,41.92
2018-07-28T12:42:48.929Z,41.73
2018-07-28T12:43:48.914Z,41.99
2018-07-28T12:44:49.084Z,42.1
2018-07-28T12:45:49.028Z,42.22
2018-07-28T12:46:48.951Z,41.77
2018-07-28T12:47:49.005Z,41.85
2018-07-28T12:48:48.927Z,42.17
2018-07-28T12:49:49.018Z,42.41
2018-07-28T12:50:48.987Z,42.48
2018-07-28T12:51:48.983Z,42.47
2018-07-28T12:52:48.966Z,42.6
2018-07-28T12:53:48.965Z,42.61
2018-07-28T12:54:49.074Z,42.93
2018-07-28T12:55:48.955Z,43.3
2018-07-28T12:56:48.947Z,42.91